createdAt,value
2019-03-26T00:02:09.351Z,35.35
2019-03-26T00:05:15.771Z,35.67
2019-03-26T00:08:22.317Z,35.89
2019-03-26T00:11:28.750Z,35.94
2019-03-26T00:14:35.179Z,35.54
2019-03-26T00:17:41.680Z,35.64
2019-03-26T00:20:48.157Z,35.25
2019-03-26T00:23:55.642Z,35.49
2019-03-26T00:27:02.186Z,35.34
2019-03-26T00:30:08.947Z,35.37
2019-03-26T00:33:15.369Z,34.84
2019-03-26T00:36:21.797Z,34.67
2019-03-26T00:39:28.207Z,35.36
2019-03-26T00:42:34.786Z,35.23
2019-03-26T00:45:41.557Z,34.82
2019-03-26T00:48:48.099Z,35.26
2019-03-26T00:51:54.587Z,34.83
2019-03-26T00:55:01.013Z,34.62
2019-03-26T00:58:07.521Z,34.81
2019-03-26T01:01:14.248Z,34.80
2019-03-26T01:04:32.136Z,34.50
2019-03-26T01:07:28.867Z,34.76
2019-03-26T01:10:35.426Z,35.32
2019-03-26T01:13:41.869Z,35.25
2019-03-26T01:16:48.343Z,35.71
2019-03-26T01:19:54.871Z,34.97
2019-03-26T01:23:01.360Z,34.68
2019-03-26T01:26:07.795Z,34.53
2019-03-26T01:29:14.228Z,34.43
2019-03-26T01:32:20.776Z,38.91
2019-03-26T01:35:27.244Z,38.49
2019-03-26T01:38:33.763Z,41.10
2019-03-26T01:41:41.171Z,41.32
2019-03-26T01:44:47.614Z,40.51
2019-03-26T01:47:54.023Z,40.50
2019-03-26T01:51:00.521Z,41.60
2019-03-26T01:54:07.061Z,41.21
2019-03-26T01:57:13.814Z,39.86
2019-03-26T02:00:20.488Z,39.83
2019-03-26T02:03:27.108Z,40.39
2019-03-26T02:06:33.557Z,38.92
2019-03-26T02:09:39.991Z,38.71
2019-03-26T02:12:48.606Z,38.58
2019-03-26T02:15:54.571Z,38.42
2019-03-26T02:19:00.863Z,41.60
2019-03-26T02:22:07.127Z,39.64
2019-03-26T02:25:13.502Z,39.28
2019-03-26T02:28:19.748Z,42.89
2019-03-26T02:31:26.087Z,42.58
2019-03-26T02:34:32.361Z,41.54
2019-03-26T02:37:40.723Z,41.53
2019-03-26T02:40:47.199Z,41.10
2019-03-26T02:43:53.642Z,41.54
2019-03-26T02:46:59.921Z,41.17
2019-03-26T02:50:06.594Z,42.21
2019-03-26T02:53:12.955Z,42.59
2019-03-26T02:56:19.358Z,42.78
2019-03-26T02:59:25.681Z,41.98
2019-03-26T03:02:31.968Z,41.28
2019-03-26T03:05:38.307Z,41.63
2019-03-26T03:08:44.690Z,42.22
2019-03-26T03:11:51.063Z,42.74
2019-03-26T03:14:57.335Z,41.96
2019-03-26T03:18:03.638Z,43.30
2019-03-26T03:21:10.008Z,42.23
2019-03-26T03:24:16.327Z,42.01
2019-03-26T03:27:22.663Z,42.07
2019-03-26T03:30:29.017Z,42.71
2019-03-26T03:33:35.350Z,41.66
2019-03-26T03:36:41.766Z,41.05
2019-03-26T03:39:48.090Z,40.58
2019-03-26T03:42:54.352Z,41.08
2019-03-26T03:46:01.606Z,40.97
2019-03-26T03:49:07.989Z,41.02
2019-03-26T03:52:15.756Z,42.23
2019-03-26T03:55:22.125Z,41.73
2019-03-26T03:58:30.299Z,42.52
2019-03-26T04:01:36.561Z,42.78
2019-03-26T04:04:43.047Z,42.16
2019-03-26T04:07:49.398Z,43.35
2019-03-26T04:10:55.679Z,44.56
2019-03-26T04:14:01.995Z,44.49
2019-03-26T04:17:08.277Z,43.77
2019-03-26T04:20:14.640Z,43.60
2019-03-26T04:23:21.002Z,43.21
2019-03-26T04:26:27.273Z,44.97
2019-03-26T04:29:33.679Z,45.06
2019-03-26T04:32:39.939Z,45.55
2019-03-26T04:35:46.270Z,45.67
2019-03-26T04:38:52.530Z,46.34
2019-03-26T04:41:58.801Z,45.35
2019-03-26T04:45:05.460Z,45.37
2019-03-26T04:48:11.774Z,45.23
2019-03-26T04:51:18.206Z,44.65
2019-03-26T04:54:24.510Z,44.63
2019-03-26T04:57:31.971Z,44.22
2019-03-26T05:00:38.313Z,44.45
2019-03-26T05:03:44.569Z,43.57
2019-03-26T05:06:50.911Z,43.53
2019-03-26T05:09:57.208Z,43.91
2019-03-26T05:13:03.504Z,43.12
2019-03-26T05:16:09.846Z,42.60
2019-03-26T05:19:16.216Z,43.80
2019-03-26T05:22:24.271Z,43.26
2019-03-26T05:25:30.904Z,44.48
2019-03-26T05:28:37.173Z,43.86
2019-03-26T05:31:43.536Z,43.12
2019-03-26T05:34:49.796Z,43.10
2019-03-26T05:37:56.103Z,42.95
2019-03-26T05:41:02.383Z,42.44
2019-03-26T05:44:09.786Z,43.30
2019-03-26T05:47:16.080Z,42.71
2019-03-26T05:50:22.346Z,43.47
2019-03-26T05:53:28.812Z,42.89
2019-03-26T05:56:35.079Z,42.15
2019-03-26T05:59:41.535Z,42.16
2019-03-26T06:02:47.856Z,41.53
2019-03-26T06:05:54.168Z,41.59
2019-03-26T06:09:00.459Z,41.11
2019-03-26T06:12:09.830Z,40.48
2019-03-26T06:15:16.379Z,39.54
2019-03-26T06:18:22.810Z,39.69
2019-03-26T06:21:29.088Z,40.06
2019-03-26T06:24:35.663Z,39.35
2019-03-26T06:27:41.948Z,38.22
2019-03-26T06:30:48.351Z,39.05
2019-03-26T06:33:55.745Z,38.19
2019-03-26T06:37:02.429Z,37.19
2019-03-26T06:40:10.109Z,37.34
2019-03-26T06:43:16.492Z,37.71
2019-03-26T06:46:22.982Z,37.40
2019-03-26T06:49:29.331Z,37.11
2019-03-26T06:52:36.833Z,37.08
2019-03-26T06:55:43.131Z,37.24
2019-03-26T06:58:50.467Z,36.63
2019-03-26T07:01:57.090Z,36.41
2019-03-26T07:05:03.381Z,36.69
2019-03-26T07:08:09.848Z,37.18
2019-03-26T07:11:16.282Z,35.62
2019-03-26T07:14:22.563Z,35.29
2019-03-26T07:17:29.355Z,36.08
2019-03-26T07:20:35.833Z,35.80
2019-03-26T07:23:42.164Z,35.02
2019-03-26T07:26:48.440Z,34.41
2019-03-26T07:29:54.823Z,34.09
2019-03-26T07:33:01.110Z,33.87
2019-03-26T07:36:07.546Z,33.83
2019-03-26T07:39:13.916Z,34.46
2019-03-26T07:42:20.237Z,33.86
2019-03-26T07:45:26.503Z,34.19
2019-03-26T07:48:32.790Z,34.79
2019-03-26T07:51:39.065Z,35.00
2019-03-26T07:54:45.611Z,35.01
2019-03-26T07:57:51.992Z,34.22
2019-03-26T08:00:58.329Z,33.47
2019-03-26T08:04:04.795Z,33.02
2019-03-26T08:07:11.104Z,32.50
2019-03-26T08:10:17.405Z,32.38
2019-03-26T08:13:23.890Z,31.92
2019-03-26T08:16:30.234Z,31.58
2019-03-26T08:19:36.537Z,31.40
2019-03-26T08:22:42.848Z,30.97
2019-03-26T08:25:49.217Z,30.43
2019-03-26T08:28:55.549Z,30.52
2019-03-26T08:32:01.868Z,30.40
2019-03-26T08:35:08.356Z,30.64
2019-03-26T08:38:14.826Z,30.80
2019-03-26T08:41:21.149Z,31.17
2019-03-26T08:44:27.531Z,31.20
2019-03-26T08:47:33.824Z,30.57
2019-03-26T08:50:40.154Z,30.05
2019-03-26T08:53:47.547Z,30.40
2019-03-26T08:56:54.078Z,30.94
2019-03-26T09:00:00.534Z,30.33
2019-03-26T09:03:07.195Z,29.75
2019-03-26T09:06:13.453Z,29.52
2019-03-26T09:09:19.724Z,29.93
2019-03-26T09:12:26.121Z,29.93
2019-03-26T09:15:32.573Z,31.22
2019-03-26T09:18:38.958Z,31.22
2019-03-26T09:21:45.434Z,30.85
2019-03-26T09:24:51.703Z,31.36
2019-03-26T09:27:58.072Z,31.61
2019-03-26T09:31:04.645Z,31.43
2019-03-26T09:34:10.927Z,31.43
2019-03-26T09:37:17.257Z,30.88
2019-03-26T09:40:23.521Z,30.39
2019-03-26T09:43:29.879Z,30.40
2019-03-26T09:46:36.380Z,29.88
2019-03-26T09:49:42.657Z,29.88
2019-03-26T09:52:48.948Z,29.56
2019-03-26T09:55:55.259Z,29.28
2019-03-26T09:59:01.543Z,29.10
2019-03-26T10:02:08.114Z,29.21
2019-03-26T10:05:14.790Z,28.89
2019-03-26T10:08:21.122Z,29.67
2019-03-26T10:11:27.401Z,29.07
2019-03-26T10:14:33.901Z,28.61
2019-03-26T10:17:40.244Z,27.89
2019-03-26T10:20:46.571Z,27.09
2019-03-26T10:23:52.983Z,26.79
2019-03-26T10:26:59.249Z,26.18
2019-03-26T10:30:06.156Z,25.88
2019-03-26T10:33:13.689Z,26.40
2019-03-26T10:36:20.024Z,26.55
2019-03-26T10:39:26.284Z,26.20
2019-03-26T10:42:32.653Z,25.83
2019-03-26T10:45:39.021Z,25.85
2019-03-26T10:48:45.354Z,25.52
2019-03-26T10:51:51.621Z,26.09
2019-03-26T10:54:57.939Z,26.36
2019-03-26T10:58:04.703Z,26.11
2019-03-26T11:01:12.151Z,27.21
2019-03-26T11:04:19.894Z,26.04
2019-03-26T11:07:26.177Z,25.59
2019-03-26T11:10:32.915Z,25.68
2019-03-26T11:13:39.206Z,25.15
2019-03-26T11:16:46.610Z,24.83
2019-03-26T11:19:52.974Z,24.74
2019-03-26T11:22:59.401Z,24.43
2019-03-26T11:26:06.079Z,24.63
2019-03-26T11:29:12.567Z,25.28
2019-03-26T11:32:18.825Z,25.31
2019-03-26T11:35:25.200Z,25.80
2019-03-26T11:38:31.558Z,25.59
2019-03-26T11:41:39.006Z,25.65
2019-03-26T11:44:45.392Z,25.11
2019-03-26T11:47:51.836Z,25.34
2019-03-26T11:50:58.248Z,25.17
2019-03-26T11:54:04.674Z,25.12
2019-03-26T11:57:11.160Z,24.77
2019-03-26T12:00:21.515Z,24.66
2019-03-26T12:03:27.938Z,24.81
2019-03-26T12:06:37.230Z,25.14
2019-03-26T12:09:46.599Z,25.82
2019-03-26T12:12:52.661Z,25.76
2019-03-26T12:15:59.106Z,25.81
2019-03-26T12:19:05.771Z,26.31
2019-03-26T12:22:12.200Z,26.48
2019-03-26T12:25:19.594Z,26.10
2019-03-26T12:28:25.870Z,25.74
2019-03-26T12:31:32.140Z,26.11
2019-03-26T12:34:38.402Z,27.33
2019-03-26T12:37:44.667Z,28.62
2019-03-26T12:40:51.552Z,29.09
2019-03-26T12:43:58.043Z,29.00
2019-03-26T12:47:04.344Z,29.07
2019-03-26T12:50:11.478Z,29.77
2019-03-26T12:53:17.832Z,30.24
2019-03-26T12:56:24.126Z,30.04
2019-03-26T12:59:30.491Z,30.21
2019-03-26T13:02:36.937Z,30.08
2019-03-26T13:05:43.257Z,30.34
2019-03-26T13:08:49.508Z,30.36
2019-03-26T13:11:55.862Z,30.64
2019-03-26T13:15:02.339Z,30.61
2019-03-26T13:18:11.192Z,30.95
2019-03-26T13:21:20.582Z,30.89
2019-03-26T13:24:27.849Z,31.07
2019-03-26T13:27:34.141Z,31.91
2019-03-26T13:30:40.709Z,32.46
2019-03-26T13:33:47.028Z,32.66
2019-03-26T13:36:53.301Z,33.32
2019-03-26T13:39:59.646Z,34.01
2019-03-26T13:43:06.171Z,34.01
2019-03-26T13:46:12.600Z,33.97
2019-03-26T13:49:18.932Z,34.18
2019-03-26T13:52:25.431Z,33.56
2019-03-26T13:55:31.801Z,33.53
2019-03-26T13:58:38.071Z,33.70
2019-03-26T14:01:44.745Z,34.71
2019-03-26T14:04:51.024Z,35.48
2019-03-26T14:07:57.562Z,35.90
2019-03-26T14:11:04.192Z,36.53
2019-03-26T14:14:10.612Z,37.09
2019-03-26T14:17:16.980Z,37.59
2019-03-26T14:20:23.563Z,36.98
2019-03-26T14:23:29.999Z,37.49
2019-03-26T14:26:36.262Z,39.04
2019-03-26T14:29:42.572Z,39.48
2019-03-26T14:32:48.944Z,40.39
2019-03-26T14:35:55.327Z,40.04
2019-03-26T14:39:01.662Z,39.79
2019-03-26T14:42:08.874Z,39.66
2019-03-26T14:45:15.306Z,40.54
2019-03-26T14:48:21.813Z,41.84
2019-03-26T14:51:28.627Z,42.17
2019-03-26T14:54:35.535Z,42.28
2019-03-26T14:57:42.798Z,42.74
2019-03-26T15:00:49.091Z,42.98
2019-03-26T15:03:55.381Z,42.99
2019-03-26T15:07:01.711Z,43.50
2019-03-26T15:10:09.264Z,43.71
2019-03-26T15:13:16.291Z,45.19
2019-03-26T15:16:22.851Z,45.94
2019-03-26T15:19:29.175Z,47.56
2019-03-26T15:22:36.745Z,47.36
2019-03-26T15:25:43.639Z,47.64
2019-03-26T15:28:49.980Z,47.47
2019-03-26T15:31:56.297Z,48.66
2019-03-26T15:35:02.553Z,49.41
2019-03-26T15:38:09.052Z,49.85
2019-03-26T15:41:21.377Z,50.28
2019-03-26T15:44:23.840Z,51.77
2019-03-26T15:47:30.162Z,52.83
2019-03-26T15:50:41.141Z,53.79
2019-03-26T15:53:47.465Z,53.58
2019-03-26T15:56:53.989Z,53.47
2019-03-26T16:00:00.432Z,52.47
2019-03-26T16:03:06.966Z,52.62
2019-03-26T16:06:13.355Z,52.23
2019-03-26T16:09:19.648Z,52.71
2019-03-26T16:12:26.098Z,52.12
2019-03-26T16:15:43.567Z,51.39
2019-03-26T16:18:40.475Z,51.13
2019-03-26T16:21:46.964Z,51.42
2019-03-26T16:24:53.576Z,51.44
2019-03-26T16:28:00.892Z,52.02
2019-03-26T16:31:07.189Z,51.79
2019-03-26T16:34:13.483Z,51.95
2019-03-26T16:37:19.830Z,53.09
2019-03-26T16:40:26.111Z,52.67
2019-03-26T16:43:32.390Z,53.06
2019-03-26T16:46:38.714Z,53.36
2019-03-26T16:49:45.120Z,54.78
2019-03-26T16:52:51.600Z,54.50
2019-03-26T16:55:58.058Z,54.34
2019-03-26T16:59:04.419Z,54.08
2019-03-26T17:02:10.815Z,53.48
2019-03-26T17:05:21.244Z,53.81
2019-03-26T17:08:27.543Z,54.34
2019-03-26T17:11:33.914Z,54.30
2019-03-26T17:14:40.307Z,53.64
2019-03-26T17:17:46.740Z,54.06
2019-03-26T17:20:53.021Z,54.07
2019-03-26T17:23:59.854Z,54.25
2019-03-26T17:27:06.497Z,54.07
2019-03-26T17:30:13.000Z,54.00
2019-03-26T17:33:19.245Z,54.08
2019-03-26T17:36:25.511Z,54.15
2019-03-26T17:39:31.865Z,53.93
2019-03-26T17:42:38.152Z,54.79
2019-03-26T17:45:44.553Z,54.27
2019-03-26T17:48:51.025Z,53.80
2019-03-26T17:51:57.431Z,54.51
2019-03-26T17:55:04.052Z,54.40
2019-03-26T17:58:10.333Z,53.77
2019-03-26T18:01:16.766Z,55.06
2019-03-26T18:04:23.268Z,55.46
2019-03-26T18:07:29.743Z,56.96
2019-03-26T18:10:36.033Z,56.44
2019-03-26T18:13:43.484Z,56.38
2019-03-26T18:16:49.785Z,56.55
2019-03-26T18:19:56.046Z,57.29
2019-03-26T18:23:02.865Z,57.72
2019-03-26T18:26:09.225Z,58.38
2019-03-26T18:29:15.565Z,59.51
2019-03-26T18:32:21.852Z,59.17
2019-03-26T18:35:29.170Z,59.34
2019-03-26T18:38:35.537Z,59.22
2019-03-26T18:41:41.994Z,58.52
2019-03-26T18:44:48.278Z,58.60
2019-03-26T18:47:54.736Z,58.65
2019-03-26T18:51:01.003Z,58.05
2019-03-26T18:54:07.424Z,57.63
2019-03-26T18:57:13.742Z,57.42
2019-03-26T19:00:36.210Z,57.26
2019-03-26T19:03:42.942Z,58.06
2019-03-26T19:06:49.454Z,58.13
2019-03-26T19:09:55.860Z,57.50
2019-03-26T19:13:02.484Z,56.75
2019-03-26T19:16:08.761Z,56.78
2019-03-26T19:19:15.088Z,56.59
2019-03-26T19:22:21.346Z,56.10
2019-03-26T19:25:27.871Z,55.23
2019-03-26T19:28:34.174Z,55.27
2019-03-26T19:31:41.025Z,54.87
2019-03-26T19:34:47.344Z,55.02
2019-03-26T19:37:53.681Z,54.20
2019-03-26T19:40:59.993Z,53.59
2019-03-26T19:44:06.287Z,53.46
2019-03-26T19:47:12.652Z,52.57
2019-03-26T19:50:19.057Z,53.17
2019-03-26T19:53:25.383Z,52.68
2019-03-26T19:56:31.661Z,52.12
2019-03-26T19:59:37.933Z,52.02
2019-03-26T20:02:44.505Z,51.69
2019-03-26T20:05:50.852Z,51.58
2019-03-26T20:08:57.514Z,51.36
2019-03-26T20:12:03.766Z,50.63
2019-03-26T20:15:11.148Z,50.47
2019-03-26T20:18:18.623Z,50.05
2019-03-26T20:21:27.627Z,50.04
2019-03-26T20:24:33.895Z,49.33
2019-03-26T20:27:40.358Z,49.15
2019-03-26T20:30:46.656Z,50.57
2019-03-26T20:33:53.052Z,52.17
2019-03-26T20:36:59.399Z,52.88
2019-03-26T20:40:07.434Z,51.93
2019-03-26T20:43:13.727Z,51.28
2019-03-26T20:46:20.190Z,50.04
2019-03-26T20:49:26.922Z,49.64
2019-03-26T20:52:33.218Z,50.35
2019-03-26T20:55:39.648Z,49.50
2019-03-26T20:58:46.451Z,48.95
2019-03-26T21:01:52.827Z,49.10
2019-03-26T21:04:59.336Z,49.15
2019-03-26T21:08:05.941Z,49.22
2019-03-26T21:11:12.370Z,49.32
2019-03-26T21:14:18.617Z,49.30
2019-03-26T21:17:26.020Z,49.06
2019-03-26T21:20:32.385Z,49.31
2019-03-26T21:23:38.811Z,49.19
2019-03-26T21:26:45.081Z,48.88
2019-03-26T21:29:51.329Z,49.85
2019-03-26T21:32:57.760Z,48.90
2019-03-26T21:36:05.729Z,48.26
2019-03-26T21:39:11.971Z,48.50
2019-03-26T21:42:18.345Z,48.34
2019-03-26T21:45:52.640Z,48.01
2019-03-26T21:48:59.067Z,48.19
2019-03-26T21:52:05.313Z,48.17
2019-03-26T21:55:13.389Z,48.14
2019-03-26T21:58:20.023Z,48.26
2019-03-26T22:01:26.302Z,48.45
2019-03-26T22:04:32.569Z,49.81
2019-03-26T22:07:38.858Z,48.80
2019-03-26T22:10:45.138Z,49.11
2019-03-26T22:13:51.492Z,49.62
2019-03-26T22:16:57.939Z,49.00
2019-03-26T22:20:04.885Z,49.33
2019-03-26T22:23:11.294Z,48.95
2019-03-26T22:26:17.687Z,49.40
2019-03-26T22:29:23.959Z,49.90
2019-03-26T22:32:30.723Z,49.58
2019-03-26T22:35:36.964Z,50.54
2019-03-26T22:38:44.283Z,50.46
2019-03-26T22:41:50.542Z,50.77
2019-03-26T22:44:56.854Z,50.42
2019-03-26T22:48:03.214Z,51.05
2019-03-26T22:51:10.590Z,50.35
2019-03-26T22:54:16.895Z,50.57
2019-03-26T22:57:23.207Z,50.31
2019-03-26T23:00:34.530Z,50.92
2019-03-26T23:03:42.448Z,51.56
2019-03-26T23:06:48.778Z,51.04
2019-03-26T23:09:55.086Z,50.72
2019-03-26T23:13:01.372Z,50.52
2019-03-26T23:16:07.926Z,50.66
2019-03-26T23:19:14.311Z,49.72
2019-03-26T23:22:20.583Z,49.61
2019-03-26T23:25:26.947Z,49.43
2019-03-26T23:28:33.197Z,49.42
2019-03-26T23:31:39.458Z,48.92
2019-03-26T23:34:45.891Z,48.75
2019-03-26T23:37:52.130Z,47.42
2019-03-26T23:40:58.372Z,46.21
2019-03-26T23:44:04.656Z,45.98
2019-03-26T23:47:10.941Z,45.71
2019-03-26T23:50:17.416Z,45.27
2019-03-26T23:53:23.770Z,44.36
2019-03-26T23:56:30.033Z,44.79
2019-03-26T23:59:36.342Z,44.41
